sensor_id;sensor_type;location;lat;lon;timestamp;P1;durP1;ratioP1;P2;durP2;ratioP2
49784;SDS011;35679;38.732;-121.358;2023-05-21T00:00:20;2.95;;;2.67;;
49784;SDS011;35679;38.732;-121.358;2023-05-21T00:03:09;3.05;;;2.85;;
49784;SDS011;35679;38.732;-121.358;2023-05-21T00:06:04;2.78;;;2.58;;
49784;SDS011;35679;38.732;-121.358;2023-05-21T00:08:54;5.15;;;2.95;;
49784;SDS011;35679;38.732;-121.358;2023-05-21T00:11:43;3.10;;;2.42;;
49784;SDS011;35679;38.732;-121.358;2023-05-21T00:14:33;3.78;;;2.70;;
49784;SDS011;35679;38.732;-121.358;2023-05-21T00:17:23;3.22;;;2.53;;
49784;SDS011;35679;38.732;-121.358;2023-05-21T00:20:13;2.70;;;2.50;;
49784;SDS011;35679;38.732;-121.358;2023-05-21T00:23:03;2.85;;;2.65;;
49784;SDS011;35679;38.732;-121.358;2023-05-21T00:25:53;2.80;;;2.60;;
49784;SDS011;35679;38.732;-121.358;2023-05-21T00:28:42;2.40;;;2.20;;
49784;SDS011;35679;38.732;-121.358;2023-05-21T00:31:31;2.70;;;2.50;;
49784;SDS011;35679;38.732;-121.358;2023-05-21T00:34:21;3.10;;;2.25;;
49784;SDS011;35679;38.732;-121.358;2023-05-21T00:37:10;2.63;;;2.42;;
49784;SDS011;35679;38.732;-121.358;2023-05-21T00:40:03;3.13;;;2.80;;
49784;SDS011;35679;38.732;-121.358;2023-05-21T00:42:54;4.93;;;2.42;;
49784;SDS011;35679;38.732;-121.358;2023-05-21T00:45:44;2.90;;;2.70;;
49784;SDS011;35679;38.732;-121.358;2023-05-21T00:48:35;2.97;;;2.78;;
49784;SDS011;35679;38.732;-121.358;2023-05-21T00:51:25;2.65;;;2.45;;
49784;SDS011;35679;38.732;-121.358;2023-05-21T00:54:17;2.70;;;2.50;;
49784;SDS011;35679;38.732;-121.358;2023-05-21T00:57:07;2.90;;;2.55;;
49784;SDS011;35679;38.732;-121.358;2023-05-21T00:59:56;4.28;;;2.50;;
49784;SDS011;35679;38.732;-121.358;2023-05-21T01:02:45;3.65;;;2.50;;
49784;SDS011;35679;38.732;-121.358;2023-05-21T01:05:35;2.22;;;2.00;;
49784;SDS011;35679;38.732;-121.358;2023-05-21T01:08:25;3.10;;;2.40;;
49784;SDS011;35679;38.732;-121.358;2023-05-21T01:11:16;3.20;;;2.58;;
49784;SDS011;35679;38.732;-121.358;2023-05-21T01:14:06;3.22;;;2.28;;
49784;SDS011;35679;38.732;-121.358;2023-05-21T01:16:58;2.92;;;2.50;;
49784;SDS011;35679;38.732;-121.358;2023-05-21T01:19:49;3.10;;;2.17;;
49784;SDS011;35679;38.732;-121.358;2023-05-21T01:23:01;2.42;;;2.22;;
49784;SDS011;35679;38.732;-121.358;2023-05-21T01:25:49;2.85;;;2.22;;
49784;SDS011;35679;38.732;-121.358;2023-05-21T01:28:39;2.63;;;2.42;;
49784;SDS011;35679;38.732;-121.358;2023-05-21T01:31:31;2.10;;;2.00;;
49784;SDS011;35679;38.732;-121.358;2023-05-21T01:34:50;2.90;;;2.20;;
49784;SDS011;35679;38.732;-121.358;2023-05-21T01:38:11;2.22;;;2.03;;
49784;SDS011;35679;38.732;-121.358;2023-05-21T01:41:11;2.22;;;2.03;;
49784;SDS011;35679;38.732;-121.358;2023-05-21T01:44:04;2.97;;;2.33;;
49784;SDS011;35679;38.732;-121.358;2023-05-21T01:46:55;3.97;;;2.70;;
49784;SDS011;35679;38.732;-121.358;2023-05-21T01:49:46;2.60;;;2.40;;
49784;SDS011;35679;38.732;-121.358;2023-05-21T01:52:35;3.80;;;2.60;;
49784;SDS011;35679;38.732;-121.358;2023-05-21T01:55:25;2.55;;;2.35;;
49784;SDS011;35679;38.732;-121.358;2023-05-21T01:58:15;2.20;;;2.10;;
49784;SDS011;35679;38.732;-121.358;2023-05-21T02:01:05;2.38;;;2.20;;
49784;SDS011;35679;38.732;-121.358;2023-05-21T02:03:56;2.55;;;2.35;;
49784;SDS011;35679;38.732;-121.358;2023-05-21T02:06:46;2.47;;;2.28;;
49784;SDS011;35679;38.732;-121.358;2023-05-21T02:09:35;2.70;;;2.30;;
49784;SDS011;35679;38.732;-121.358;2023-05-21T02:12:24;2.58;;;2.15;;
49784;SDS011;35679;38.732;-121.358;2023-05-21T02:15:15;3.58;;;2.20;;
49784;SDS011;35679;38.732;-121.358;2023-05-21T02:18:08;2.08;;;1.90;;
49784;SDS011;35679;38.732;-121.358;2023-05-21T02:20:57;3.25;;;2.35;;
49784;SDS011;35679;38.732;-121.358;2023-05-21T02:23:47;4.63;;;2.10;;
49784;SDS011;35679;38.732;-121.358;2023-05-21T02:26:36;2.58;;;2.38;;
49784;SDS011;35679;38.732;-121.358;2023-05-21T02:29:26;2.70;;;2.22;;
49784;SDS011;35679;38.732;-121.358;2023-05-21T02:32:15;2.65;;;2.00;;
49784;SDS011;35679;38.732;-121.358;2023-05-21T02:35:04;2.60;;;2.40;;
49784;SDS011;35679;38.732;-121.358;2023-05-21T02:37:54;2.45;;;2.08;;
49784;SDS011;35679;38.732;-121.358;2023-05-21T02:40:46;2.42;;;2.10;;
49784;SDS011;35679;38.732;-121.358;2023-05-21T02:43:36;2.70;;;2.50;;
49784;SDS011;35679;38.732;-121.358;2023-05-21T02:46:26;2.50;;;2.30;;
49784;SDS011;35679;38.732;-121.358;2023-05-21T02:49:17;2.35;;;2.15;;
49784;SDS011;35679;38.732;-121.358;2023-05-21T02:52:07;2.53;;;2.33;;
49784;SDS011;35679;38.732;-121.358;2023-05-21T02:54:56;3.42;;;2.40;;
49784;SDS011;35679;38.732;-121.358;2023-05-21T02:57:46;2.28;;;2.10;;
49784;SDS011;35679;38.732;-121.358;2023-05-21T03:00:36;2.33;;;2.13;;
49784;SDS011;35679;38.732;-121.358;2023-05-21T03:03:25;2.67;;;2.10;;
49784;SDS011;35679;38.732;-121.358;2023-05-21T03:06:15;2.72;;;2.10;;
49784;SDS011;35679;38.732;-121.358;2023-05-21T03:09:05;2.60;;;2.40;;
49784;SDS011;35679;38.732;-121.358;2023-05-21T03:11:54;2.30;;;1.98;;
49784;SDS011;35679;38.732;-121.358;2023-05-21T03:14:44;2.75;;;2.35;;
49784;SDS011;35679;38.732;-121.358;2023-05-21T03:17:33;3.70;;;2.40;;
49784;SDS011;35679;38.732;-121.358;2023-05-21T03:20:23;2.58;;;2.22;;
49784;SDS011;35679;38.732;-121.358;2023-05-21T03:23:12;2.22;;;1.98;;
49784;SDS011;35679;38.732;-121.358;2023-05-21T03:26:03;2.33;;;2.13;;
49784;SDS011;35679;38.732;-121.358;2023-05-21T03:28:52;3.00;;;2.00;;
49784;SDS011;35679;38.732;-121.358;2023-05-21T03:31:42;2.30;;;2.03;;
49784;SDS011;35679;38.732;-121.358;2023-05-21T03:34:33;2.10;;;2.00;;
49784;SDS011;35679;38.732;-121.358;2023-05-21T03:37:23;2.40;;;2.30;;
49784;SDS011;35679;38.732;-121.358;2023-05-21T03:40:13;4.72;;;2.30;;
49784;SDS011;35679;38.732;-121.358;2023-05-21T03:43:03;2.78;;;2.28;;
49784;SDS011;35679;38.732;-121.358;2023-05-21T03:45:53;2.10;;;1.90;;
49784;SDS011;35679;38.732;-121.358;2023-05-21T03:49:15;2.50;;;2.17;;
49784;SDS011;35679;38.732;-121.358;2023-05-21T03:52:05;2.35;;;2.15;;
49784;SDS011;35679;38.732;-121.358;2023-05-21T03:54:54;2.30;;;2.10;;
49784;SDS011;35679;38.732;-121.358;2023-05-21T03:57:44;3.67;;;2.55;;
49784;SDS011;35679;38.732;-121.358;2023-05-21T04:00:34;2.80;;;2.17;;
49784;SDS011;35679;38.732;-121.358;2023-05-21T04:03:24;2.30;;;2.10;;
49784;SDS011;35679;38.732;-121.358;2023-05-21T04:06:14;2.78;;;2.42;;
49784;SDS011;35679;38.732;-121.358;2023-05-21T04:09:04;2.20;;;2.00;;
49784;SDS011;35679;38.732;-121.358;2023-05-21T04:11:53;2.20;;;2.10;;
49784;SDS011;35679;38.732;-121.358;2023-05-21T04:14:43;3.20;;;2.10;;
49784;SDS011;35679;38.732;-121.358;2023-05-21T04:17:33;2.38;;;2.17;;
49784;SDS011;35679;38.732;-121.358;2023-05-21T04:20:22;2.72;;;2.08;;
49784;SDS011;35679;38.732;-121.358;2023-05-21T04:23:12;2.28;;;2.15;;
49784;SDS011;35679;38.732;-121.358;2023-05-21T04:26:01;3.05;;;2.30;;
49784;SDS011;35679;38.732;-121.358;2023-05-21T04:28:52;2.65;;;2.22;;
49784;SDS011;35679;38.732;-121.358;2023-05-21T04:31:44;2.50;;;2.30;;
49784;SDS011;35679;38.732;-121.358;2023-05-21T04:34:34;2.88;;;2.20;;
49784;SDS011;35679;38.732;-121.358;2023-05-21T04:37:23;2.50;;;2.30;;
49784;SDS011;35679;38.732;-121.358;2023-05-21T04:40:13;2.70;;;2.50;;
49784;SDS011;35679;38.732;-121.358;2023-05-21T04:43:05;3.70;;;2.40;;
49784;SDS011;35679;38.732;-121.358;2023-05-21T04:45:55;2.42;;;2.22;;
49784;SDS011;35679;38.732;-121.358;2023-05-21T04:48:44;2.92;;;2.20;;
49784;SDS011;35679;38.732;-121.358;2023-05-21T04:51:34;2.40;;;2.20;;
49784;SDS011;35679;38.732;-121.358;2023-05-21T04:54:25;2.45;;;2.25;;
49784;SDS011;35679;38.732;-121.358;2023-05-21T04:57:15;3.30;;;2.30;;
49784;SDS011;35679;38.732;-121.358;2023-05-21T05:00:05;3.08;;;2.10;;
49784;SDS011;35679;38.732;-121.358;2023-05-21T05:03:00;2.30;;;2.10;;
49784;SDS011;35679;38.732;-121.358;2023-05-21T05:05:50;3.22;;;2.50;;
49784;SDS011;35679;38.732;-121.358;2023-05-21T05:08:40;2.50;;;2.30;;
49784;SDS011;35679;38.732;-121.358;2023-05-21T05:11:29;2.67;;;2.33;;
49784;SDS011;35679;38.732;-121.358;2023-05-21T05:14:18;3.33;;;2.55;;
49784;SDS011;35679;38.732;-121.358;2023-05-21T05:17:09;2.83;;;2.50;;
49784;SDS011;35679;38.732;-121.358;2023-05-21T05:20:02;2.55;;;2.35;;
49784;SDS011;35679;38.732;-121.358;2023-05-21T05:22:52;3.55;;;2.47;;
49784;SDS011;35679;38.732;-121.358;2023-05-21T05:25:41;2.95;;;2.70;;
49784;SDS011;35679;38.732;-121.358;2023-05-21T05:28:31;3.08;;;2.55;;
49784;SDS011;35679;38.732;-121.358;2023-05-21T05:31:20;3.40;;;2.70;;
49784;SDS011;35679;38.732;-121.358;2023-05-21T05:34:11;2.60;;;2.40;;
49784;SDS011;35679;38.732;-121.358;2023-05-21T05:37:00;2.65;;;2.45;;
49784;SDS011;35679;38.732;-121.358;2023-05-21T05:39:50;2.55;;;2.35;;
49784;SDS011;35679;38.732;-121.358;2023-05-21T05:42:40;2.45;;;2.13;;
49784;SDS011;35679;38.732;-121.358;2023-05-21T05:45:33;3.90;;;2.40;;
49784;SDS011;35679;38.732;-121.358;2023-05-21T05:48:29;3.03;;;2.58;;
49784;SDS011;35679;38.732;-121.358;2023-05-21T05:51:19;5.53;;;2.60;;
49784;SDS011;35679;38.732;-121.358;2023-05-21T05:54:08;3.30;;;2.88;;
49784;SDS011;35679;38.732;-121.358;2023-05-21T05:56:58;3.50;;;2.20;;
49784;SDS011;35679;38.732;-121.358;2023-05-21T05:59:47;4.05;;;2.80;;
49784;SDS011;35679;38.732;-121.358;2023-05-21T06:02:37;4.65;;;2.70;;
49784;SDS011;35679;38.732;-121.358;2023-05-21T06:05:28;3.20;;;2.28;;
49784;SDS011;35679;38.732;-121.358;2023-05-21T06:08:18;2.95;;;2.53;;
49784;SDS011;35679;38.732;-121.358;2023-05-21T06:11:07;3.10;;;2.10;;
49784;SDS011;35679;38.732;-121.358;2023-05-21T06:13:57;2.60;;;2.40;;
49784;SDS011;35679;38.732;-121.358;2023-05-21T06:16:48;2.85;;;2.38;;
49784;SDS011;35679;38.732;-121.358;2023-05-21T06:19:39;2.60;;;2.40;;
49784;SDS011;35679;38.732;-121.358;2023-05-21T06:22:28;3.00;;;2.40;;
49784;SDS011;35679;38.732;-121.358;2023-05-21T06:25:17;2.80;;;2.53;;
49784;SDS011;35679;38.732;-121.358;2023-05-21T06:28:07;2.95;;;2.63;;
49784;SDS011;35679;38.732;-121.358;2023-05-21T06:30:57;2.95;;;2.30;;
49784;SDS011;35679;38.732;-121.358;2023-05-21T06:33:47;2.80;;;2.60;;
49784;SDS011;35679;38.732;-121.358;2023-05-21T06:36:37;3.78;;;2.58;;
49784;SDS011;35679;38.732;-121.358;2023-05-21T06:39:27;3.83;;;2.58;;
49784;SDS011;35679;38.732;-121.358;2023-05-21T06:42:16;2.95;;;2.40;;
49784;SDS011;35679;38.732;-121.358;2023-05-21T06:45:14;3.22;;;2.40;;
49784;SDS011;35679;38.732;-121.358;2023-05-21T06:48:04;3.72;;;2.25;;
49784;SDS011;35679;38.732;-121.358;2023-05-21T06:50:54;2.50;;;2.30;;
49784;SDS011;35679;38.732;-121.358;2023-05-21T06:53:45;2.45;;;2.28;;
49784;SDS011;35679;38.732;-121.358;2023-05-21T06:56:36;3.05;;;2.75;;
49784;SDS011;35679;38.732;-121.358;2023-05-21T06:59:27;2.47;;;2.30;;
49784;SDS011;35679;38.732;-121.358;2023-05-21T07:02:17;3.10;;;2.42;;
49784;SDS011;35679;38.732;-121.358;2023-05-21T07:05:07;3.85;;;2.72;;
49784;SDS011;35679;38.732;-121.358;2023-05-21T07:07:57;3.30;;;2.50;;
49784;SDS011;35679;38.732;-121.358;2023-05-21T07:10:46;2.40;;;2.20;;
49784;SDS011;35679;38.732;-121.358;2023-05-21T07:13:37;2.63;;;2.30;;
49784;SDS011;35679;38.732;-121.358;2023-05-21T07:16:26;2.97;;;2.53;;
49784;SDS011;35679;38.732;-121.358;2023-05-21T07:19:16;2.30;;;2.20;;
49784;SDS011;35679;38.732;-121.358;2023-05-21T07:22:06;4.53;;;2.60;;
49784;SDS011;35679;38.732;-121.358;2023-05-21T07:24:57;3.05;;;2.58;;
49784;SDS011;35679;38.732;-121.358;2023-05-21T07:27:47;2.95;;;2.50;;
49784;SDS011;35679;38.732;-121.358;2023-05-21T07:30:36;2.80;;;2.55;;
49784;SDS011;35679;38.732;-121.358;2023-05-21T07:33:30;3.40;;;2.72;;
49784;SDS011;35679;38.732;-121.358;2023-05-21T07:36:20;2.45;;;2.25;;
49784;SDS011;35679;38.732;-121.358;2023-05-21T07:39:09;3.55;;;2.83;;
49784;SDS011;35679;38.732;-121.358;2023-05-21T07:42:01;2.95;;;2.75;;
49784;SDS011;35679;38.732;-121.358;2023-05-21T07:44:50;2.95;;;2.50;;
49784;SDS011;35679;38.732;-121.358;2023-05-21T07:47:44;3.70;;;2.60;;
49784;SDS011;35679;38.732;-121.358;2023-05-21T07:50:34;2.70;;;2.40;;
49784;SDS011;35679;38.732;-121.358;2023-05-21T07:53:25;2.75;;;2.50;;
49784;SDS011;35679;38.732;-121.358;2023-05-21T07:56:15;2.75;;;2.55;;
49784;SDS011;35679;38.732;-121.358;2023-05-21T07:59:05;3.67;;;2.60;;
49784;SDS011;35679;38.732;-121.358;2023-05-21T08:01:55;2.90;;;2.53;;
49784;SDS011;35679;38.732;-121.358;2023-05-21T08:04:46;4.07;;;3.03;;
49784;SDS011;35679;38.732;-121.358;2023-05-21T08:07:35;3.08;;;2.70;;
49784;SDS011;35679;38.732;-121.358;2023-05-21T08:10:26;2.80;;;2.60;;
49784;SDS011;35679;38.732;-121.358;2023-05-21T08:13:15;3.17;;;2.75;;
49784;SDS011;35679;38.732;-121.358;2023-05-21T08:16:07;2.88;;;2.60;;
49784;SDS011;35679;38.732;-121.358;2023-05-21T08:18:56;2.78;;;2.60;;
49784;SDS011;35679;38.732;-121.358;2023-05-21T08:21:46;3.03;;;2.75;;
49784;SDS011;35679;38.732;-121.358;2023-05-21T08:24:40;3.13;;;2.50;;
49784;SDS011;35679;38.732;-121.358;2023-05-21T08:27:29;4.22;;;2.67;;
49784;SDS011;35679;38.732;-121.358;2023-05-21T08:30:18;3.20;;;2.58;;
49784;SDS011;35679;38.732;-121.358;2023-05-21T08:33:08;2.83;;;2.63;;
49784;SDS011;35679;38.732;-121.358;2023-05-21T08:35:58;2.83;;;2.50;;
49784;SDS011;35679;38.732;-121.358;2023-05-21T08:38:48;3.65;;;2.88;;
49784;SDS011;35679;38.732;-121.358;2023-05-21T08:41:44;2.72;;;2.50;;
49784;SDS011;35679;38.732;-121.358;2023-05-21T08:44:37;3.35;;;2.83;;
49784;SDS011;35679;38.732;-121.358;2023-05-21T08:47:33;3.30;;;2.80;;
49784;SDS011;35679;38.732;-121.358;2023-05-21T08:50:25;3.88;;;2.80;;
49784;SDS011;35679;38.732;-121.358;2023-05-21T08:53:19;3.08;;;2.80;;
49784;SDS011;35679;38.732;-121.358;2023-05-21T08:56:16;3.65;;;2.80;;
49784;SDS011;35679;38.732;-121.358;2023-05-21T08:59:11;5.00;;;2.97;;
49784;SDS011;35679;38.732;-121.358;2023-05-21T09:02:02;3.00;;;2.40;;
49784;SDS011;35679;38.732;-121.358;2023-05-21T09:04:55;3.00;;;2.70;;
49784;SDS011;35679;38.732;-121.358;2023-05-21T09:07:47;3.55;;;2.50;;
49784;SDS011;35679;38.732;-121.358;2023-05-21T09:10:57;2.65;;;2.45;;
49784;SDS011;35679;38.732;-121.358;2023-05-21T09:14:02;4.55;;;3.15;;
49784;SDS011;35679;38.732;-121.358;2023-05-21T09:17:18;2.85;;;2.50;;
49784;SDS011;35679;38.732;-121.358;2023-05-21T09:20:22;3.00;;;2.63;;
49784;SDS011;35679;38.732;-121.358;2023-05-21T09:23:18;2.85;;;2.60;;
49784;SDS011;35679;38.732;-121.358;2023-05-21T09:26:09;3.45;;;2.80;;
49784;SDS011;35679;38.732;-121.358;2023-05-21T09:31:50;3.03;;;2.63;;
49784;SDS011;35679;38.732;-121.358;2023-05-21T09:34:42;3.05;;;2.85;;
49784;SDS011;35679;38.732;-121.358;2023-05-21T09:37:31;2.90;;;2.60;;
49784;SDS011;35679;38.732;-121.358;2023-05-21T09:40:25;2.70;;;2.50;;
49784;SDS011;35679;38.732;-121.358;2023-05-21T09:43:15;4.03;;;2.90;;
49784;SDS011;35679;38.732;-121.358;2023-05-21T09:46:04;3.63;;;2.60;;
49784;SDS011;35679;38.732;-121.358;2023-05-21T09:48:54;3.13;;;2.80;;
49784;SDS011;35679;38.732;-121.358;2023-05-21T09:51:44;2.97;;;2.70;;
49784;SDS011;35679;38.732;-121.358;2023-05-21T09:54:33;2.63;;;2.42;;
49784;SDS011;35679;38.732;-121.358;2023-05-21T09:57:23;3.45;;;2.90;;
49784;SDS011;35679;38.732;-121.358;2023-05-21T10:00:23;3.70;;;2.80;;
49784;SDS011;35679;38.732;-121.358;2023-05-21T10:03:15;3.42;;;2.53;;
49784;SDS011;35679;38.732;-121.358;2023-05-21T10:06:06;2.83;;;2.63;;
49784;SDS011;35679;38.732;-121.358;2023-05-21T10:08:58;3.17;;;2.92;;
49784;SDS011;35679;38.732;-121.358;2023-05-21T10:11:52;3.08;;;2.72;;
49784;SDS011;35679;38.732;-121.358;2023-05-21T10:14:45;2.80;;;2.35;;
49784;SDS011;35679;38.732;-121.358;2023-05-21T10:18:04;3.80;;;2.70;;
49784;SDS011;35679;38.732;-121.358;2023-05-21T10:20:56;3.20;;;2.58;;
49784;SDS011;35679;38.732;-121.358;2023-05-21T10:23:46;4.20;;;2.63;;
49784;SDS011;35679;38.732;-121.358;2023-05-21T10:26:41;3.10;;;2.80;;
49784;SDS011;35679;38.732;-121.358;2023-05-21T10:29:31;3.90;;;2.97;;
49784;SDS011;35679;38.732;-121.358;2023-05-21T10:32:21;3.00;;;2.70;;
49784;SDS011;35679;38.732;-121.358;2023-05-21T10:35:11;2.92;;;2.53;;
49784;SDS011;35679;38.732;-121.358;2023-05-21T10:38:06;2.80;;;2.60;;
49784;SDS011;35679;38.732;-121.358;2023-05-21T10:40:56;2.85;;;2.55;;
49784;SDS011;35679;38.732;-121.358;2023-05-21T10:44:36;4.13;;;2.80;;
49784;SDS011;35679;38.732;-121.358;2023-05-21T10:58:00;3.33;;;2.90;;
49784;SDS011;35679;38.732;-121.358;2023-05-21T11:00:21;2.40;;;2.20;;
49784;SDS011;35679;38.732;-121.358;2023-05-21T11:03:13;2.60;;;2.40;;
49784;SDS011;35679;38.732;-121.358;2023-05-21T11:06:04;2.70;;;2.50;;
49784;SDS011;35679;38.732;-121.358;2023-05-21T11:08:53;2.65;;;2.50;;
49784;SDS011;35679;38.732;-121.358;2023-05-21T11:14:39;2.63;;;2.42;;
49784;SDS011;35679;38.732;-121.358;2023-05-21T11:17:39;2.42;;;2.20;;
49784;SDS011;35679;38.732;-121.358;2023-05-21T11:20:32;2.67;;;2.47;;
49784;SDS011;35679;38.732;-121.358;2023-05-21T11:23:22;2.55;;;2.35;;
49784;SDS011;35679;38.732;-121.358;2023-05-21T11:26:14;2.80;;;2.60;;
49784;SDS011;35679;38.732;-121.358;2023-05-21T11:31:59;2.80;;;2.50;;
49784;SDS011;35679;38.732;-121.358;2023-05-21T11:34:50;2.60;;;2.40;;
49784;SDS011;35679;38.732;-121.358;2023-05-21T11:37:39;2.85;;;2.40;;
49784;SDS011;35679;38.732;-121.358;2023-05-21T11:40:30;2.90;;;2.70;;
49784;SDS011;35679;38.732;-121.358;2023-05-21T11:43:20;3.53;;;2.78;;
49784;SDS011;35679;38.732;-121.358;2023-05-21T11:46:10;2.78;;;2.58;;
49784;SDS011;35679;38.732;-121.358;2023-05-21T11:49:01;2.57;;;2.40;;
49784;SDS011;35679;38.732;-121.358;2023-05-21T11:51:52;2.55;;;2.38;;
49784;SDS011;35679;38.732;-121.358;2023-05-21T11:54:42;2.83;;;2.60;;
49784;SDS011;35679;38.732;-121.358;2023-05-21T11:57:40;3.38;;;2.70;;
49784;SDS011;35679;38.732;-121.358;2023-05-21T12:00:36;3.60;;;2.83;;
49784;SDS011;35679;38.732;-121.358;2023-05-21T12:03:33;2.83;;;2.60;;
49784;SDS011;35679;38.732;-121.358;2023-05-21T12:06:25;2.53;;;2.33;;
49784;SDS011;35679;38.732;-121.358;2023-05-21T12:09:15;2.60;;;2.40;;
49784;SDS011;35679;38.732;-121.358;2023-05-21T12:12:04;2.88;;;2.67;;
49784;SDS011;35679;38.732;-121.358;2023-05-21T12:14:55;3.58;;;2.50;;
49784;SDS011;35679;38.732;-121.358;2023-05-21T12:17:48;2.97;;;2.70;;
49784;SDS011;35679;38.732;-121.358;2023-05-21T12:20:39;3.50;;;2.50;;
49784;SDS011;35679;38.732;-121.358;2023-05-21T12:23:30;3.00;;;2.80;;
49784;SDS011;35679;38.732;-121.358;2023-05-21T12:26:20;2.75;;;2.53;;
49784;SDS011;35679;38.732;-121.358;2023-05-21T12:32:02;2.50;;;2.30;;
49784;SDS011;35679;38.732;-121.358;2023-05-21T12:34:56;2.92;;;2.45;;
49784;SDS011;35679;38.732;-121.358;2023-05-21T12:37:46;2.72;;;2.53;;
49784;SDS011;35679;38.732;-121.358;2023-05-21T12:40:38;2.72;;;2.40;;
49784;SDS011;35679;38.732;-121.358;2023-05-21T12:43:31;4.50;;;2.78;;
49784;SDS011;35679;38.732;-121.358;2023-05-21T12:46:21;3.08;;;2.75;;
49784;SDS011;35679;38.732;-121.358;2023-05-21T12:49:29;3.15;;;2.90;;
49784;SDS011;35679;38.732;-121.358;2023-05-21T12:52:28;2.90;;;2.65;;
49784;SDS011;35679;38.732;-121.358;2023-05-21T12:55:23;3.00;;;2.70;;
49784;SDS011;35679;38.732;-121.358;2023-05-21T13:01:20;2.72;;;2.47;;
49784;SDS011;35679;38.732;-121.358;2023-05-21T13:04:10;2.70;;;2.50;;
49784;SDS011;35679;38.732;-121.358;2023-05-21T13:06:59;3.45;;;3.10;;
49784;SDS011;35679;38.732;-121.358;2023-05-21T13:09:51;3.03;;;2.83;;
49784;SDS011;35679;38.732;-121.358;2023-05-21T13:12:41;2.88;;;2.35;;
49784;SDS011;35679;38.732;-121.358;2023-05-21T13:15:31;2.80;;;2.60;;
49784;SDS011;35679;38.732;-121.358;2023-05-21T13:18:21;3.30;;;2.70;;
49784;SDS011;35679;38.732;-121.358;2023-05-21T13:21:11;2.85;;;2.60;;
49784;SDS011;35679;38.732;-121.358;2023-05-21T13:24:00;2.60;;;2.40;;
49784;SDS011;35679;38.732;-121.358;2023-05-21T13:26:49;2.85;;;2.63;;
49784;SDS011;35679;38.732;-121.358;2023-05-21T13:29:38;2.67;;;2.47;;
49784;SDS011;35679;38.732;-121.358;2023-05-21T13:32:28;2.90;;;2.70;;
49784;SDS011;35679;38.732;-121.358;2023-05-21T13:35:17;2.78;;;2.58;;
49784;SDS011;35679;38.732;-121.358;2023-05-21T13:38:07;3.13;;;2.92;;
49784;SDS011;35679;38.732;-121.358;2023-05-21T13:40:56;2.60;;;2.40;;
49784;SDS011;35679;38.732;-121.358;2023-05-21T13:43:45;2.42;;;2.22;;
49784;SDS011;35679;38.732;-121.358;2023-05-21T13:46:34;2.90;;;2.60;;
49784;SDS011;35679;38.732;-121.358;2023-05-21T13:49:26;2.70;;;2.50;;
49784;SDS011;35679;38.732;-121.358;2023-05-21T13:52:16;2.83;;;2.63;;
49784;SDS011;35679;38.732;-121.358;2023-05-21T13:55:05;3.78;;;2.63;;
49784;SDS011;35679;38.732;-121.358;2023-05-21T13:57:55;2.40;;;2.20;;
49784;SDS011;35679;38.732;-121.358;2023-05-21T14:00:44;2.70;;;2.50;;
49784;SDS011;35679;38.732;-121.358;2023-05-21T14:03:34;2.72;;;2.53;;
49784;SDS011;35679;38.732;-121.358;2023-05-21T14:06:23;2.53;;;2.33;;
49784;SDS011;35679;38.732;-121.358;2023-05-21T14:09:13;2.50;;;2.30;;
49784;SDS011;35679;38.732;-121.358;2023-05-21T14:12:03;2.90;;;2.70;;
49784;SDS011;35679;38.732;-121.358;2023-05-21T14:14:53;3.20;;;2.90;;
49784;SDS011;35679;38.732;-121.358;2023-05-21T14:17:43;3.65;;;3.05;;
49784;SDS011;35679;38.732;-121.358;2023-05-21T14:20:32;2.80;;;2.60;;
49784;SDS011;35679;38.732;-121.358;2023-05-21T14:23:22;2.47;;;2.30;;
49784;SDS011;35679;38.732;-121.358;2023-05-21T14:26:12;2.92;;;2.70;;
49784;SDS011;35679;38.732;-121.358;2023-05-21T14:29:02;3.28;;;2.80;;
49784;SDS011;35679;38.732;-121.358;2023-05-21T14:31:52;3.20;;;2.55;;
49784;SDS011;35679;38.732;-121.358;2023-05-21T14:34:41;2.83;;;2.55;;
49784;SDS011;35679;38.732;-121.358;2023-05-21T14:37:30;2.40;;;2.30;;
49784;SDS011;35679;38.732;-121.358;2023-05-21T14:40:20;4.43;;;3.38;;
49784;SDS011;35679;38.732;-121.358;2023-05-21T14:43:10;3.63;;;3.08;;
49784;SDS011;35679;38.732;-121.358;2023-05-21T14:46:02;4.18;;;3.75;;
49784;SDS011;35679;38.732;-121.358;2023-05-21T14:48:51;6.30;;;3.47;;
49784;SDS011;35679;38.732;-121.358;2023-05-21T14:51:42;4.63;;;3.20;;
49784;SDS011;35679;38.732;-121.358;2023-05-21T14:54:32;3.65;;;3.20;;
49784;SDS011;35679;38.732;-121.358;2023-05-21T14:57:21;4.07;;;3.78;;
49784;SDS011;35679;38.732;-121.358;2023-05-21T15:00:11;4.00;;;3.28;;
49784;SDS011;35679;38.732;-121.358;2023-05-21T15:03:00;6.15;;;3.70;;
49784;SDS011;35679;38.732;-121.358;2023-05-21T15:05:50;4.72;;;3.25;;
49784;SDS011;35679;38.732;-121.358;2023-05-21T15:08:39;3.90;;;3.55;;
49784;SDS011;35679;38.732;-121.358;2023-05-21T15:11:29;5.78;;;3.65;;
49784;SDS011;35679;38.732;-121.358;2023-05-21T15:14:18;6.57;;;3.78;;
49784;SDS011;35679;38.732;-121.358;2023-05-21T15:17:08;3.72;;;2.90;;
49784;SDS011;35679;38.732;-121.358;2023-05-21T15:19:57;4.00;;;3.35;;
49784;SDS011;35679;38.732;-121.358;2023-05-21T15:22:48;3.42;;;3.13;;
49784;SDS011;35679;38.732;-121.358;2023-05-21T15:25:45;3.55;;;3.30;;
49784;SDS011;35679;38.732;-121.358;2023-05-21T15:28:34;4.07;;;3.78;;
49784;SDS011;35679;38.732;-121.358;2023-05-21T15:31:24;4.43;;;3.33;;
49784;SDS011;35679;38.732;-121.358;2023-05-21T15:34:13;4.68;;;3.22;;
49784;SDS011;35679;38.732;-121.358;2023-05-21T15:37:05;3.85;;;3.45;;
49784;SDS011;35679;38.732;-121.358;2023-05-21T15:39:54;3.55;;;3.25;;
49784;SDS011;35679;38.732;-121.358;2023-05-21T15:42:44;5.70;;;3.60;;
49784;SDS011;35679;38.732;-121.358;2023-05-21T15:45:33;4.03;;;3.45;;
49784;SDS011;35679;38.732;-121.358;2023-05-21T15:48:23;3.67;;;3.25;;
49784;SDS011;35679;38.732;-121.358;2023-05-21T15:51:13;5.68;;;3.65;;
49784;SDS011;35679;38.732;-121.358;2023-05-21T15:54:02;6.35;;;3.55;;
49784;SDS011;35679;38.732;-121.358;2023-05-21T15:56:51;4.80;;;3.40;;
49784;SDS011;35679;38.732;-121.358;2023-05-21T15:59:41;3.45;;;2.92;;
49784;SDS011;35679;38.732;-121.358;2023-05-21T16:02:30;3.78;;;3.38;;
49784;SDS011;35679;38.732;-121.358;2023-05-21T16:05:20;3.65;;;3.35;;
49784;SDS011;35679;38.732;-121.358;2023-05-21T16:08:09;4.82;;;3.65;;
49784;SDS011;35679;38.732;-121.358;2023-05-21T16:10:59;4.20;;;3.50;;
49784;SDS011;35679;38.732;-121.358;2023-05-21T16:13:49;4.35;;;3.78;;
49784;SDS011;35679;38.732;-121.358;2023-05-21T16:16:38;4.10;;;3.78;;
49784;SDS011;35679;38.732;-121.358;2023-05-21T16:19:28;4.97;;;3.67;;
49784;SDS011;35679;38.732;-121.358;2023-05-21T16:22:17;4.55;;;3.80;;
49784;SDS011;35679;38.732;-121.358;2023-05-21T16:25:11;4.25;;;3.75;;
49784;SDS011;35679;38.732;-121.358;2023-05-21T16:28:00;3.90;;;3.60;;
49784;SDS011;35679;38.732;-121.358;2023-05-21T16:30:50;4.22;;;3.65;;
49784;SDS011;35679;38.732;-121.358;2023-05-21T16:33:39;4.00;;;3.63;;
49784;SDS011;35679;38.732;-121.358;2023-05-21T16:36:29;4.07;;;3.78;;
49784;SDS011;35679;38.732;-121.358;2023-05-21T16:39:18;4.10;;;3.72;;
49784;SDS011;35679;38.732;-121.358;2023-05-21T16:42:08;3.75;;;3.45;;
49784;SDS011;35679;38.732;-121.358;2023-05-21T16:44:57;5.68;;;3.20;;
49784;SDS011;35679;38.732;-121.358;2023-05-21T16:47:49;4.60;;;4.07;;
49784;SDS011;35679;38.732;-121.358;2023-05-21T16:50:39;4.15;;;3.85;;